Bowler, Wisconsin
Current Conditions -  °F | °C
As of 4:15 AM on Saturday 20 Dec 2014 (Local Time) from KCLI Reporting Station
Overcast Overcast  
Wind Chill: -6°   Ceiling: 2800
Heat Index: -6°   Visibility: 7mi
Dew Point: -7°   Wind: 0mph
Humidity: 93%   Direction: NA
Pressure: 30.26"   Gusts: NA
Location:  44.86°N, 88.98°W
Report Text: KCLI 201015Z AUTO 00000KT 7SM OVC028 M06/M07 A3026 RMK AO2
Loading
Personal Weather Stations






























Interactive Weather Map New forecast layout! Learn more

10-Day Weather Forecast

Advertisements
Track Severe Weather on mobile